createdAt,value
2022-11-28T00:00:00.856Z,22.73
2022-11-28T00:02:29.566Z,26.35
2022-11-28T00:04:58.271Z,25.88
2022-11-28T00:07:29.205Z,22.95
2022-11-28T00:09:58.010Z,18.85
2022-11-28T00:12:27.024Z,26.15
2022-11-28T00:14:55.806Z,23.65
2022-11-28T00:17:24.389Z,27.95
2022-11-28T00:19:55.614Z,25.15
2022-11-28T00:22:24.272Z,26.15
2022-11-28T00:24:54.857Z,25.58
2022-11-28T00:27:23.605Z,27.90
2022-11-28T00:29:52.298Z,29.85
2022-11-28T00:32:20.907Z,28.10
2022-11-28T00:34:49.672Z,25.88
2022-11-28T00:37:18.452Z,29.05
2022-11-28T00:39:47.064Z,29.77
2022-11-28T00:42:20.444Z,27.60
2022-11-28T00:44:49.428Z,34.38
2022-11-28T00:47:18.217Z,26.42
2022-11-28T00:49:46.788Z,29.33
2022-11-28T00:52:15.439Z,26.70
2022-11-28T00:54:44.232Z,33.95
2022-11-28T00:57:13.005Z,33.25
2022-11-28T00:59:43.523Z,33.33
2022-11-28T01:02:12.185Z,28.00
2022-11-28T01:04:41.106Z,30.92
2022-11-28T01:07:09.904Z,32.63
2022-11-28T01:09:38.568Z,35.35
2022-11-28T01:12:07.673Z,31.42
2022-11-28T01:14:36.379Z,30.40
2022-11-28T01:17:07.016Z,34.00
2022-11-28T01:19:35.644Z,31.67
2022-11-28T01:22:05.782Z,33.28
2022-11-28T01:24:34.531Z,35.17
2022-11-28T01:27:03.132Z,35.33
2022-11-28T01:29:31.737Z,30.80
2022-11-28T01:32:00.362Z,32.60
2022-11-28T01:34:30.926Z,36.97
2022-11-28T01:36:59.569Z,35.22
2022-11-28T01:39:28.309Z,31.95
2022-11-28T01:41:56.866Z,31.50
2022-11-28T01:45:16.398Z,30.90
2022-11-28T01:47:45.426Z,34.97
2022-11-28T01:50:16.943Z,30.83
2022-11-28T01:52:51.732Z,29.67
2022-11-28T01:55:25.282Z,28.00
2022-11-28T01:57:56.565Z,31.40
2022-11-28T02:00:25.512Z,28.55
2022-11-28T02:03:00.134Z,31.20
2022-11-28T02:05:30.692Z,24.92
2022-11-28T02:07:59.395Z,24.63
2022-11-28T02:10:34.085Z,24.63
2022-11-28T02:13:23.924Z,29.02
2022-11-28T02:16:12.685Z,28.50
2022-11-28T02:19:00.179Z,24.13
2022-11-28T02:21:48.626Z,25.98
2022-11-28T02:24:55.228Z,25.13
2022-11-28T02:28:21.190Z,25.88
2022-11-28T02:31:10.685Z,23.00
2022-11-28T02:33:45.078Z,23.52
2022-11-28T02:36:21.101Z,28.45
2022-11-28T02:39:03.865Z,25.77
2022-11-28T02:41:40.580Z,28.73
2022-11-28T02:44:16.148Z,27.05
2022-11-28T02:46:54.445Z,28.58
2022-11-28T02:49:32.022Z,29.08
2022-11-28T02:52:06.741Z,27.65
2022-11-28T02:54:35.707Z,28.25
2022-11-28T02:57:04.711Z,30.02
2022-11-28T02:59:50.056Z,31.00
2022-11-28T03:02:24.882Z,27.75
2022-11-28T03:05:03.577Z,32.17
2022-11-28T03:07:54.397Z,32.45
2022-11-28T03:10:31.090Z,28.25
2022-11-28T03:13:12.336Z,35.95
2022-11-28T03:15:54.079Z,31.27
2022-11-28T03:18:27.408Z,32.00
2022-11-28T03:21:05.744Z,29.70
2022-11-28T03:23:43.226Z,32.80
2022-11-28T03:26:19.991Z,33.33
2022-11-28T03:28:56.706Z,30.95
2022-11-28T03:31:33.155Z,35.67
2022-11-28T03:34:05.683Z,45.08
2022-11-28T03:36:42.323Z,33.50
2022-11-28T03:39:15.450Z,36.25
2022-11-28T03:41:51.311Z,32.60
2022-11-28T03:44:26.194Z,36.63
2022-11-28T03:46:58.438Z,41.28
2022-11-28T03:49:33.531Z,34.53
2022-11-28T03:52:07.856Z,34.22
2022-11-28T03:54:41.853Z,37.08
2022-11-28T03:57:19.323Z,35.67
2022-11-28T03:59:50.993Z,37.10
2022-11-28T04:02:28.324Z,36.00
2022-11-28T04:05:04.711Z,39.17
2022-11-28T04:07:43.177Z,42.20
2022-11-28T04:10:19.467Z,51.30
2022-11-28T04:12:58.382Z,48.05
2022-11-28T04:15:38.156Z,46.13
2022-11-28T04:18:21.187Z,41.55
2022-11-28T04:20:55.180Z,41.75
2022-11-28T04:23:28.287Z,43.20
2022-11-28T04:26:03.094Z,42.30
2022-11-28T04:28:35.327Z,42.38
2022-11-28T04:31:07.207Z,41.83
2022-11-28T04:36:09.937Z,38.58
2022-11-28T04:38:42.103Z,40.13
2022-11-28T04:41:18.203Z,39.42
2022-11-28T04:43:56.688Z,38.05
2022-11-28T04:46:34.091Z,38.20
2022-11-28T04:49:03.060Z,41.88
2022-11-28T04:51:43.571Z,42.83
2022-11-28T04:54:20.517Z,39.85
2022-11-28T04:56:59.656Z,41.75
2022-11-28T04:59:31.896Z,41.33
2022-11-28T05:02:04.902Z,44.50
2022-11-28T05:04:37.308Z,47.22
2022-11-28T05:07:07.964Z,45.97
2022-11-28T05:09:38.660Z,37.70
2022-11-28T05:12:08.321Z,41.80
2022-11-28T05:14:36.927Z,43.17
2022-11-28T05:17:05.487Z,43.13
2022-11-28T05:19:34.180Z,42.88
2022-11-28T05:22:02.761Z,50.75
2022-11-28T05:24:32.497Z,46.75
2022-11-28T05:27:03.267Z,42.97
2022-11-28T05:29:32.177Z,46.90
2022-11-28T05:32:00.871Z,55.63
2022-11-28T05:34:30.487Z,50.05
2022-11-28T05:36:59.755Z,46.67
2022-11-28T05:39:28.523Z,44.00
2022-11-28T05:41:57.171Z,51.75
2022-11-28T05:44:27.891Z,55.80
2022-11-28T05:46:56.445Z,53.47
2022-11-28T05:49:25.728Z,49.67
2022-11-28T05:51:54.300Z,49.03
2022-11-28T05:54:22.895Z,47.30
2022-11-28T05:56:51.542Z,51.58
2022-11-28T05:59:20.199Z,56.75
2022-11-28T06:01:50.750Z,48.28
2022-11-28T06:04:19.419Z,51.40
2022-11-28T06:06:50.922Z,50.97
2022-11-28T06:09:23.321Z,65.05
2022-11-28T06:11:54.418Z,48.42
2022-11-28T06:14:22.988Z,50.55
2022-11-28T06:16:53.588Z,53.15
2022-11-28T06:19:23.431Z,62.22
2022-11-28T06:21:52.337Z,59.15
2022-11-28T06:24:20.957Z,58.50
2022-11-28T06:26:49.586Z,56.85
2022-11-28T06:29:19.830Z,59.92
2022-11-28T06:31:48.708Z,57.47
2022-11-28T06:34:19.343Z,57.50
2022-11-28T06:36:47.984Z,58.65
2022-11-28T06:39:18.509Z,60.67
2022-11-28T06:41:56.115Z,64.68
2022-11-28T06:44:25.049Z,76.70
2022-11-28T06:46:54.102Z,73.93
2022-11-28T06:49:24.622Z,63.85
2022-11-28T06:51:53.264Z,69.10
2022-11-28T06:54:21.982Z,69.22
2022-11-28T06:56:50.611Z,80.78
2022-11-28T06:59:19.560Z,72.80
2022-11-28T07:01:48.849Z,77.88
2022-11-28T07:04:17.611Z,78.45
2022-11-28T07:06:48.094Z,83.60
2022-11-28T07:09:16.795Z,88.38
2022-11-28T07:11:45.453Z,83.70
2022-11-28T07:14:14.221Z,85.22
2022-11-28T07:16:42.921Z,90.68
2022-11-28T07:19:14.003Z,94.25
2022-11-28T07:21:42.947Z,91.47
2022-11-28T07:24:13.504Z,118.65
2022-11-28T07:26:42.224Z,105.53
2022-11-28T07:29:15.463Z,98.30
2022-11-28T07:31:44.480Z,108.50
2022-11-28T07:34:13.647Z,101.43
2022-11-28T07:36:42.300Z,104.45
2022-11-28T07:39:15.348Z,119.70
2022-11-28T07:41:44.026Z,120.25
2022-11-28T07:44:17.081Z,107.07
2022-11-28T07:46:47.353Z,109.85
2022-11-28T07:49:16.999Z,133.80
2022-11-28T07:51:45.622Z,159.40
2022-11-28T07:54:16.289Z,131.70
2022-11-28T07:59:13.283Z,132.52
2022-11-28T08:01:53.953Z,135.07
2022-11-28T08:04:24.960Z,131.85
2022-11-28T08:06:53.676Z,129.43
2022-11-28T08:09:22.391Z,137.00
2022-11-28T08:11:51.934Z,121.03
2022-11-28T08:14:22.546Z,150.48
2022-11-28T08:16:51.755Z,137.02
2022-11-28T08:19:24.579Z,129.13
2022-11-28T08:21:54.181Z,123.35
2022-11-28T08:24:22.780Z,137.10
2022-11-28T08:26:51.452Z,163.10
2022-11-28T08:29:22.132Z,135.43
2022-11-28T08:31:50.857Z,140.32
2022-11-28T08:34:19.586Z,138.18
2022-11-28T08:36:49.559Z,135.73
2022-11-28T08:39:25.680Z,174.02
2022-11-28T08:41:56.453Z,118.88
2022-11-28T08:44:30.364Z,124.03
2022-11-28T08:46:59.867Z,133.07
2022-11-28T08:49:28.499Z,173.18
2022-11-28T08:51:57.202Z,166.25
2022-11-28T08:54:25.817Z,143.88
2022-11-28T08:56:54.503Z,140.38
2022-11-28T08:59:23.614Z,177.98
2022-11-28T09:01:56.588Z,188.50
2022-11-28T09:04:25.379Z,190.20
2022-11-28T09:06:54.517Z,177.32
2022-11-28T09:09:23.317Z,216.95
2022-11-28T09:11:52.027Z,145.73
2022-11-28T09:14:20.689Z,175.77
2022-11-28T09:16:50.439Z,179.45
2022-11-28T09:19:21.121Z,164.93
2022-11-28T09:21:54.555Z,172.50
2022-11-28T09:24:26.143Z,201.40
2022-11-28T09:26:54.976Z,212.65
2022-11-28T09:29:23.565Z,205.95
2022-11-28T09:31:52.300Z,200.70
2022-11-28T09:34:23.036Z,196.00
2022-11-28T09:36:51.756Z,246.52
2022-11-28T09:39:20.286Z,191.75
2022-11-28T09:42:09.260Z,147.52
2022-11-28T09:44:44.622Z,211.15
2022-11-28T09:47:21.487Z,197.75
2022-11-28T09:49:57.908Z,153.52
2022-11-28T09:52:34.081Z,173.25
2022-11-28T09:55:15.642Z,177.57
2022-11-28T09:57:48.590Z,167.98
2022-11-28T10:00:21.319Z,168.98
2022-11-28T10:03:09.925Z,169.02
2022-11-28T10:05:46.895Z,158.27
2022-11-28T10:08:30.698Z,138.15
2022-11-28T10:11:06.245Z,127.57
2022-11-28T10:14:07.061Z,119.28
2022-11-28T10:16:50.506Z,117.70
2022-11-28T10:19:52.790Z,120.15
2022-11-28T10:22:27.939Z,99.22
2022-11-28T10:25:02.360Z,102.43
2022-11-28T10:27:36.925Z,102.93
2022-11-28T10:30:12.559Z,101.82
2022-11-28T10:32:46.523Z,95.95
2022-11-28T10:35:28.604Z,95.15
2022-11-28T10:37:59.563Z,88.78
2022-11-28T10:40:40.021Z,78.43
2022-11-28T10:43:19.696Z,85.65
2022-11-28T10:45:59.338Z,86.78
2022-11-28T10:48:42.029Z,87.65
2022-11-28T10:51:32.197Z,83.05
2022-11-28T10:54:19.850Z,80.80
2022-11-28T10:57:03.304Z,94.13
2022-11-28T10:59:45.195Z,77.10
2022-11-28T11:04:51.024Z,91.53
2022-11-28T11:07:29.529Z,79.45
2022-11-28T11:10:15.428Z,75.53
2022-11-28T11:12:45.740Z,72.30
2022-11-28T11:15:22.694Z,78.43
2022-11-28T11:17:52.098Z,84.10
2022-11-28T11:20:35.982Z,71.90
2022-11-28T11:23:17.077Z,72.55
2022-11-28T11:25:57.645Z,81.77
2022-11-28T11:28:42.502Z,74.80
2022-11-28T11:31:30.007Z,75.95
2022-11-28T11:34:06.664Z,82.20
2022-11-28T11:36:38.150Z,70.72
2022-11-28T11:39:22.379Z,70.80
2022-11-28T11:42:09.880Z,74.50
2022-11-28T11:44:39.036Z,76.43
2022-11-28T11:47:10.475Z,79.18
2022-11-28T11:49:42.719Z,74.05
2022-11-28T11:52:24.556Z,68.95
2022-11-28T11:55:03.558Z,74.57
2022-11-28T11:57:40.700Z,64.22
2022-11-28T12:00:20.209Z,68.00
2022-11-28T12:02:55.056Z,68.60
2022-11-28T12:05:41.790Z,76.30
2022-11-28T12:08:27.647Z,74.68
2022-11-28T12:11:12.316Z,71.68
2022-11-28T12:13:42.935Z,64.57
2022-11-28T12:16:37.636Z,73.18
2022-11-28T12:19:18.324Z,69.85
2022-11-28T12:22:07.440Z,66.90
2022-11-28T12:24:48.252Z,66.00
2022-11-28T12:27:32.286Z,68.97
2022-11-28T12:30:22.975Z,68.55
2022-11-28T12:33:09.147Z,54.47
2022-11-28T12:35:42.058Z,60.15
2022-11-28T12:38:27.909Z,54.47
2022-11-28T12:41:25.121Z,60.15
2022-11-28T12:44:07.038Z,57.88
2022-11-28T12:46:48.854Z,53.38
2022-11-28T12:49:24.294Z,58.75
2022-11-28T12:52:10.581Z,56.72
2022-11-28T12:55:06.393Z,53.78
2022-11-28T12:57:45.613Z,54.88
2022-11-28T13:00:20.396Z,54.00
2022-11-28T13:03:07.239Z,57.35
2022-11-28T13:05:50.211Z,54.47
2022-11-28T13:08:48.252Z,59.72
2022-11-28T13:11:40.889Z,60.60
2022-11-28T13:16:48.991Z,60.13
2022-11-28T13:19:35.437Z,55.20
2022-11-28T13:22:14.143Z,59.13
2022-11-28T13:24:53.564Z,65.88
2022-11-28T13:27:32.723Z,62.63
2022-11-28T13:30:16.484Z,60.42
2022-11-28T13:32:53.223Z,61.83
2022-11-28T13:35:24.764Z,66.15
2022-11-28T13:40:54.780Z,62.30
2022-11-28T13:43:33.115Z,61.10
2022-11-28T13:46:02.389Z,63.42
2022-11-28T13:49:14.470Z,59.10
2022-11-28T13:51:47.209Z,56.80
2022-11-28T13:54:41.365Z,59.88
2022-11-28T13:57:24.360Z,72.32
2022-11-28T14:04:36.536Z,61.00
2022-11-28T14:07:08.627Z,67.03
2022-11-28T14:09:48.873Z,58.53
2022-11-28T14:15:06.730Z,55.50
2022-11-28T14:17:57.568Z,62.60
2022-11-28T14:20:34.294Z,61.25
2022-11-28T14:23:22.791Z,66.63
2022-11-28T14:25:53.983Z,62.88
2022-11-28T14:28:27.025Z,67.07
2022-11-28T14:31:07.280Z,62.30
2022-11-28T14:33:41.740Z,69.63
2022-11-28T14:36:36.479Z,71.57
2022-11-28T14:39:32.196Z,62.08
2022-11-28T14:45:51.548Z,68.40
2022-11-28T14:48:32.300Z,64.45
2022-11-28T14:51:02.597Z,66.15
2022-11-28T14:53:50.390Z,62.03
2022-11-28T14:56:29.504Z,61.97
2022-11-28T14:59:02.873Z,65.97
2022-11-28T15:01:50.006Z,69.03
2022-11-28T15:04:55.248Z,63.08
2022-11-28T15:07:36.560Z,55.95
2022-11-28T15:10:11.801Z,66.45
2022-11-28T15:12:56.350Z,66.13
2022-11-28T15:15:25.170Z,70.20
2022-11-28T15:17:56.293Z,65.75
2022-11-28T15:20:32.117Z,66.47
2022-11-28T15:23:00.938Z,66.25
2022-11-28T15:25:36.653Z,66.95
2022-11-28T15:28:16.086Z,61.53
2022-11-28T15:30:47.949Z,64.35
2022-11-28T15:35:59.121Z,72.07
2022-11-28T15:38:29.923Z,71.53
2022-11-28T15:41:00.093Z,68.03
2022-11-28T15:43:30.864Z,63.78
2022-11-28T15:46:02.545Z,70.13
2022-11-28T15:48:39.887Z,70.05
2022-11-28T15:51:26.718Z,66.03
2022-11-28T15:53:55.563Z,69.47
2022-11-28T15:56:24.728Z,71.03
2022-11-28T15:58:54.318Z,66.50
2022-11-28T16:01:25.695Z,64.25
2022-11-28T16:03:58.522Z,59.72
2022-11-28T16:06:32.313Z,63.20
2022-11-28T16:09:05.045Z,66.78
2022-11-28T16:11:37.913Z,71.68
2022-11-28T16:14:12.145Z,71.05
2022-11-28T16:16:41.431Z,63.45
2022-11-28T16:19:25.537Z,75.07
2022-11-28T16:22:00.362Z,59.33
2022-11-28T16:24:38.577Z,64.00
2022-11-28T16:27:08.212Z,84.85
2022-11-28T16:29:38.137Z,81.53
2022-11-28T16:32:11.483Z,72.95
2022-11-28T16:34:48.677Z,74.95
2022-11-28T16:37:23.840Z,85.38
2022-11-28T16:40:04.163Z,81.55
2022-11-28T16:42:34.001Z,74.40
2022-11-28T16:45:13.001Z,71.85
2022-11-28T16:47:41.813Z,83.28
2022-11-28T16:50:24.326Z,93.00
2022-11-28T16:52:57.056Z,76.18
2022-11-28T16:55:43.686Z,73.80
2022-11-28T16:58:16.501Z,102.43
2022-11-28T17:00:50.834Z,78.03
2022-11-28T17:03:44.053Z,83.68
2022-11-28T17:06:21.046Z,75.65
2022-11-28T17:08:52.364Z,87.93
2022-11-28T17:11:24.296Z,81.70
2022-11-28T17:16:28.970Z,81.07
2022-11-28T17:18:57.626Z,81.57
2022-11-28T17:21:33.452Z,88.40
2022-11-28T17:24:04.385Z,94.88
2022-11-28T17:26:33.106Z,83.90
2022-11-28T17:29:01.879Z,92.35
2022-11-28T17:31:30.580Z,86.13
2022-11-28T17:33:59.380Z,86.13
2022-11-28T17:36:28.151Z,102.32
2022-11-28T17:39:00.988Z,107.10
2022-11-28T17:41:34.691Z,102.63
2022-11-28T17:44:03.336Z,126.57
2022-11-28T17:46:31.996Z,156.52
2022-11-28T17:49:00.871Z,166.77
2022-11-28T17:51:52.257Z,233.95
2022-11-28T17:54:24.188Z,206.95
2022-11-28T17:59:26.436Z,272.42
2022-11-28T18:01:55.691Z,208.32
2022-11-28T18:04:24.349Z,140.20
2022-11-28T18:06:53.029Z,179.45
2022-11-28T18:09:21.669Z,135.45
2022-11-28T18:11:50.994Z,140.30
2022-11-28T18:14:21.542Z,155.13
2022-11-28T18:16:50.223Z,170.15
2022-11-28T18:19:18.890Z,115.43
2022-11-28T18:21:47.466Z,125.72
2022-11-28T18:24:16.409Z,113.78
2022-11-28T18:26:45.141Z,103.40
2022-11-28T18:29:13.779Z,102.40
2022-11-28T18:31:44.644Z,123.10
2022-11-28T18:34:13.299Z,127.53
2022-11-28T18:36:42.250Z,142.70
2022-11-28T18:39:15.994Z,105.97
2022-11-28T18:41:44.719Z,139.93
2022-11-28T18:44:13.571Z,125.78
2022-11-28T18:46:44.260Z,143.90
2022-11-28T18:49:14.599Z,160.82
2022-11-28T18:51:43.302Z,152.00
2022-11-28T18:54:16.233Z,151.50
2022-11-28T18:56:48.153Z,182.38
2022-11-28T18:59:16.963Z,118.57
2022-11-28T19:01:47.542Z,198.85
2022-11-28T19:04:16.243Z,244.70
2022-11-28T19:06:47.732Z,280.42
2022-11-28T19:09:20.176Z,324.50
2022-11-28T19:11:48.796Z,288.10
2022-11-28T19:14:19.087Z,239.35
2022-11-28T19:16:53.092Z,274.08
2022-11-28T19:19:22.001Z,274.50
2022-11-28T19:21:50.731Z,279.15
2022-11-28T19:24:19.368Z,264.88
2022-11-28T19:26:48.164Z,240.88
2022-11-28T19:29:16.998Z,286.02
2022-11-28T19:31:45.762Z,204.77
2022-11-28T19:34:19.565Z,247.05
2022-11-28T19:36:51.345Z,258.55
2022-11-28T19:39:22.908Z,260.20
2022-11-28T19:41:53.169Z,245.43
2022-11-28T19:44:24.084Z,232.75
2022-11-28T19:46:53.209Z,244.38
2022-11-28T19:49:25.853Z,238.43
2022-11-28T19:51:55.983Z,191.35
2022-11-28T19:54:24.827Z,291.77
2022-11-28T19:56:53.544Z,240.15
2022-11-28T19:59:22.138Z,244.30
2022-11-28T20:01:53.187Z,263.55
2022-11-28T20:04:23.914Z,201.37
2022-11-28T20:06:52.603Z,235.07
2022-11-28T20:09:21.551Z,228.85
2022-11-28T20:11:50.268Z,174.90
2022-11-28T20:14:21.591Z,254.48
2022-11-28T20:16:52.427Z,238.90
2022-11-28T20:19:22.994Z,237.85
2022-11-28T20:21:51.648Z,306.20
2022-11-28T20:25:20.607Z,212.10
2022-11-28T20:27:42.540Z,248.63
2022-11-28T20:30:12.994Z,283.27
2022-11-28T20:32:41.610Z,206.07
2022-11-28T20:35:12.471Z,234.85
2022-11-28T20:37:41.171Z,242.38
2022-11-28T20:40:12.094Z,223.90
2022-11-28T20:42:40.743Z,298.98
2022-11-28T20:45:10.567Z,205.68
2022-11-28T20:47:39.542Z,280.65
2022-11-28T20:50:11.974Z,256.73
2022-11-28T20:52:40.585Z,313.95
2022-11-28T20:55:10.349Z,226.25
2022-11-28T20:57:39.293Z,287.85
2022-11-28T21:00:10.452Z,244.75
2022-11-28T21:02:39.243Z,284.83
2022-11-28T21:05:14.715Z,229.57
2022-11-28T21:07:43.311Z,258.90
2022-11-28T21:10:12.484Z,284.88
2022-11-28T21:12:41.136Z,272.13
2022-11-28T21:15:11.500Z,308.75
2022-11-28T21:17:40.182Z,284.58
2022-11-28T21:20:12.369Z,303.05
2022-11-28T21:22:40.971Z,289.98
2022-11-28T21:25:09.771Z,304.35
2022-11-28T21:27:38.446Z,295.38
2022-11-28T21:30:10.236Z,371.55
2022-11-28T21:32:39.003Z,413.45
2022-11-28T21:35:09.148Z,351.05
2022-11-28T21:37:39.721Z,371.17
2022-11-28T21:40:10.571Z,489.65
2022-11-28T21:42:39.147Z,440.20
2022-11-28T21:45:09.566Z,314.35
2022-11-28T21:47:38.159Z,442.73
2022-11-28T21:50:08.700Z,372.27
2022-11-28T21:52:39.287Z,439.77
2022-11-28T21:55:08.818Z,348.58
2022-11-28T21:57:37.382Z,429.75
2022-11-28T22:00:08.467Z,537.47
2022-11-28T22:02:39.835Z,652.08
2022-11-28T22:05:09.475Z,750.55
2022-11-28T22:07:40.112Z,691.05
2022-11-28T22:10:10.864Z,593.70
2022-11-28T22:12:39.431Z,589.05
2022-11-28T22:15:09.429Z,570.50
2022-11-28T22:17:38.232Z,529.95
2022-11-28T22:20:09.911Z,584.55
2022-11-28T22:22:40.606Z,474.77
2022-11-28T22:25:10.124Z,638.80
2022-11-28T22:27:39.392Z,582.75
2022-11-28T22:30:10.424Z,497.15
2022-11-28T22:32:38.994Z,511.30
2022-11-28T22:35:09.627Z,525.30
2022-11-28T22:37:40.170Z,478.60
2022-11-28T22:40:11.469Z,656.20
2022-11-28T22:42:40.154Z,343.48
2022-11-28T22:45:10.833Z,450.02
2022-11-28T22:47:39.392Z,524.17
2022-11-28T22:50:10.056Z,382.00
2022-11-28T22:52:41.179Z,476.48
2022-11-28T22:55:10.702Z,417.60
2022-11-28T22:57:39.350Z,366.20
2022-11-28T23:00:11.053Z,437.13
2022-11-28T23:02:39.750Z,467.10
2022-11-28T23:05:09.328Z,520.00
2022-11-28T23:07:39.959Z,286.13
2022-11-28T23:10:10.483Z,471.67
2022-11-28T23:12:40.099Z,438.80
2022-11-28T23:15:11.131Z,477.35
2022-11-28T23:17:40.488Z,382.40
2022-11-28T23:20:11.061Z,425.60
2022-11-28T23:22:41.515Z,550.15
2022-11-28T23:25:11.040Z,381.35
2022-11-28T23:27:39.662Z,296.52
2022-11-28T23:30:10.423Z,332.73
2022-11-28T23:32:39.034Z,415.60
2022-11-28T23:35:08.677Z,288.92
2022-11-28T23:37:41.262Z,351.05
2022-11-28T23:40:11.939Z,390.98
2022-11-28T23:42:41.079Z,494.92
2022-11-28T23:45:12.191Z,430.52
2022-11-28T23:47:40.768Z,480.40
2022-11-28T23:50:11.072Z,308.42
2022-11-28T23:52:41.564Z,283.65
2022-11-28T23:55:11.044Z,325.13
2022-11-28T23:57:39.938Z,344.40
